Kingman, AZ

1:06 PM MST on August 21, 2014 (GMT -0700)
Kingman | Change Station
CLOSE
Current Station
Airport
Location: Kingman,
Elevation: 3448 ft
Nearby Weather Stations

Elev 3448 ft 35.26 °N, 113.93 °W | Updated 11 minutes ago

Heavy Rain
Heavy Rain
63 °F
Feels Like 63 °F
N
8
Wind Variable Wind from East

Today
High -- | Low -- °F
--% Chance of Precip.
Yesterday
High -- | Low -- °F
Precip. -- in
6:00 AM 7:17 PM
Waning Crescent, 12% visible
Pressure 30.21 in
Visibility 2.0 miles
Clouds Scattered Clouds 3900 ft
Mostly Cloudy 6000 ft
Overcast 7500 ft
Dew Point 58 °F
Humidity 84%
Rainfall 0.52 in
Snow Depth Not available.
UV 3 out of 12
Pollen 5.70 out of 12
Air Quality Not available.
Flu Activity Not available.
SPECI KIGM 211955Z AUTO 10007KT 2SM +RA SCT039 BKN060 OVC075 17/14 A3021 RMK AO2 LTG DSNT W AND NW P0002 T01720144

More Conditions Fewer Conditions

Pressure 30.21 in
Visibility 2.0 miles
Clouds Scattered Clouds 3900 ft
Mostly Cloudy 6000 ft
Overcast 7500 ft
Dew Point 58 °F
Humidity 84%
Rainfall 0.52 in
Snow Depth Not available.
UV 3 out of 12
Pollen 5.70 out of 12
Air Quality Not available.
Flu Activity Not available.
SPECI KIGM 211955Z AUTO 10007KT 2SM +RA SCT039 BKN060 OVC075 17/14 A3021 RMK AO2 LTG DSNT W AND NW P0002 T01720144

More Conditions Fewer Conditions

10-Day Weather Forecast

Almanac

Astronomy

Aug. 21, 2014 Rise Set
Actual Time 6:00 AM MST 7:17 PM MST
Civil Twilight 5:34 AM MST 7:43 PM MST
Nautical Twilight 5:02 AM MST 8:15 PM MST
Astronomical Twilight 4:29 AM MST 8:48 PM MST
Moon 2:38 AM MST 4:46 PM MST
Length of Visible Light 14h 09m
Length of Day
13h 16m
Tomorrow will be 2m 0s shorter.
Waning Crescent, 12% of the Moon is Illuminated
Today
Waning Crescent
Aug 25
New
Sep 2
First Quarter
Sep 8
Full
Sep 15
Last Quarter

Today's Extremes

State Highs State Lows

Community

WunderPhotos

Upload Photos

1,746,011 photos uploaded!

WunderBlogs® & News

Nearby

Snow Depth

Station Depth Elevation
White Horse Lake 0 in 7180 ft
Snowslide Canyon 0 in 9730 ft
Workman Creek 1 in 6900 ft
Beaver Head 14 in 7990 ft

Earthquake Activity

City Distance Mag. Time & Date
No recent earthquake activity has been reported nearby.
Minimum magnitude displayed is 2.5.

Coastal Water Temperatures

Place Temperature
No Stations Reporting

Nearby Weather Stations